หน้าหลัก
METAR-TAF:

METAR-TAF

ท่าอากาศยาน :

Ataq, เยเมน

ละติจูด: 14-31N, ลองจิจูด: 046-51E, ความสูง: 1067 ม.

การสังเกตสภาพอากาศปัจจุบัน

รายงานได้ทำขึ้นเมื่อ 16 ชั่วโมงและ 22 นาทีที่แล้ว ณ เวลา 13:00 UTC
ลม 14 นอตจากใต้/ตะวันออกเฉียงใต้
อุณหภูมิ 37°C
ความชื้น 37%
ความกดอากาศ 1009 hPa
ทัศนวิสัย 10 กม. หรือมากกว่า
มีเมฆน้อยที่ความสูง 2500 ฟุต, คิวมูโลนิมบัส.
มีเมฆกระจายเป็นบางส่วนที่ความสูง 3000 ฟุต
พายุฝนฟ้าคะนอง,

METAR: OYAT 231300Z 15014KT 9999 TS FEW025CB SCT030 37/20 Q1009

เวลา: 08:22 (05:22 UTC)


TAF: หายไป

สังเกตการณ์สภาพอากาศและพยากรณ์อากาศของสนามบินมากกว่า 4000 แห่ง (รายงาน METAR และ TAF).

สถานีที่ดูได้จะแสดงไว้ด้วยจุดสีเหลืองและสีแดงบนแผนที่.

เลื่อนเมาส์ไปเหนือจุดเพื่อดูชื่อสถานี.

แล้วคลิกเพื่อดูสังเกตการณ์และการพยากรณ์สภาพอากาศ.

ในการเปลี่ยนแผนที่: คลิกที่ปุ่มสีเขียวที่มีกากบาทสีดำเพื่อซูมเข้า; ที่ปุ่มสีเขียวที่มีขีดเพื่อซูมออก; หรือที่ลูกศรสีเขียวเพื่อไปยังแผนที่ที่อยู่ติดกัน.


METAR-TAF: